Time;durP1;ratioP1;P1;durP2;ratioP2;P2;SDS_P1;SDS_P2;PMS_P1;PMS_P2;Temp;Humidity;BMP_temperature;BMP_pressure;BME280_temperature;BME280_humidity;BME280_pressure;Samples;Min_cycle;Max_cycle;Signal;HPM_P1;HPM_P2
2023/07/04 00:00:38;;;;;;;19.00;10.00;;;;;;;14.01;96.13;101002.97;4992346;28;20043;-68
2023/07/04 00:03:04;;;;;;;18.70;9.95;;;;;;;14.04;96.83;101000.34;4992345;28;20041;-68
2023/07/04 00:05:29;;;;;;;20.73;10.32;;;;;;;13.99;97.24;100994.97;4992057;28;20109;-68
2023/07/04 00:07:54;;;;;;;19.17;9.80;;;;;;;13.93;96.40;100990.72;4992191;28;20034;-68
2023/07/04 00:10:20;;;;;;;19.38;9.93;;;;;;;13.97;96.67;100988.09;4992075;28;20058;-68
2023/07/04 00:12:46;;;;;;;22.10;10.30;;;;;;;14.04;96.72;100985.63;4992029;28;20406;-68
2023/07/04 00:15:13;;;;;;;21.45;10.10;;;;;;;14.08;96.99;100989.38;4992173;28;20069;-68
2023/07/04 00:17:39;;;;;;;17.40;9.85;;;;;;;14.14;97.37;100987.25;4990704;28;20045;-68
2023/07/04 00:20:06;;;;;;;19.35;10.38;;;;;;;14.09;95.43;100993.81;4991943;28;20501;-68
2023/07/04 00:22:33;;;;;;;19.65;9.85;;;;;;;14.00;96.01;100990.19;4991903;28;20380;-69
2023/07/04 00:24:59;;;;;;;20.23;9.75;;;;;;;13.86;96.71;100980.06;4992211;28;20033;-69
2023/07/04 00:27:24;;;;;;;17.88;9.52;;;;;;;13.86;95.58;100977.28;4992106;28;20031;-68
2023/07/04 00:29:50;;;;;;;16.92;9.35;;;;;;;13.85;95.33;100972.03;4991864;28;20125;-69
2023/07/04 00:32:16;;;;;;;18.50;9.35;;;;;;;13.93;96.41;100987.94;4992035;28;20109;-68
2023/07/04 00:34:45;;;;;;;18.88;9.30;;;;;;;13.88;97.24;100983.34;4992206;28;20113;-68
2023/07/04 00:37:11;;;;;;;18.92;9.85;;;;;;;13.88;97.47;100985.28;4994051;28;20335;-68
2023/07/04 00:39:37;;;;;;;18.60;9.27;;;;;;;13.89;97.60;100976.59;4995457;28;20095;-68
2023/07/04 00:42:05;;;;;;;17.42;9.30;;;;;;;13.85;97.62;100975.63;4995316;28;20474;-68
2023/07/04 00:44:34;;;;;;;17.80;9.30;;;;;;;13.79;97.85;100973.34;4995474;28;20066;-68
2023/07/04 00:47:11;;;;;;;17.27;9.73;;;;;;;13.72;98.55;100966.31;4995360;28;20053;-68
2023/07/04 00:49:43;;;;;;;20.10;9.38;;;;;;;13.64;99.08;100972.66;4995242;28;20114;-68
2023/07/04 00:52:33;;;;;;;20.73;10.68;;;;;;;13.54;99.40;100959.88;4995501;28;20110;-69
2023/07/04 00:55:01;;;;;;;18.85;9.85;;;;;;;13.40;99.99;100948.91;4995351;28;20022;-69
2023/07/04 00:57:32;;;;;;;18.98;9.75;;;;;;;13.44;100.00;100964.94;4995024;28;20026;-69
2023/07/04 01:00:08;;;;;;;21.27;10.77;;;;;;;13.41;100.00;100966.41;4994919;28;20042;-69
2023/07/04 01:02:34;;;;;;;19.13;10.40;;;;;;;13.34;100.00;100964.06;4995322;28;20022;-68
2023/07/04 01:05:03;;;;;;;19.23;10.60;;;;;;;13.25;100.00;100952.91;4996755;28;20033;-68
2023/07/04 01:07:46;;;;;;;20.83;11.07;;;;;;;13.24;100.00;100965.16;5014568;28;20026;-68
2023/07/04 01:10:18;;;;;;;22.55;11.13;;;;;;;13.17;100.00;100959.25;5014615;28;20113;-68
2023/07/04 01:12:44;;;;;;;22.85;11.10;;;;;;;13.17;100.00;100967.59;5014500;28;20112;-69
2023/07/04 01:15:10;;;;;;;20.70;11.10;;;;;;;13.11;100.00;100963.31;5014364;28;20038;-69
2023/07/04 01:17:36;;;;;;;23.33;11.68;;;;;;;13.06;100.00;100955.94;5014435;28;20032;-69
2023/07/04 01:20:03;;;;;;;24.10;11.80;;;;;;;13.06;100.00;100971.78;5014250;28;20026;-69
2023/07/04 01:22:41;;;;;;;23.35;12.05;;;;;;;13.01;100.00;100956.06;5014261;28;20032;-68
2023/07/04 01:25:20;;;;;;;23.25;11.73;;;;;;;13.08;100.00;100972.28;5014216;28;20041;-68
2023/07/04 01:27:49;;;;;;;22.38;11.10;;;;;;;13.13;100.00;100965.78;5014521;28;20080;-68
2023/07/04 01:30:17;;;;;;;26.70;12.23;;;;;;;13.14;100.00;100967.41;5013935;28;20494;-68
2023/07/04 01:32:43;;;;;;;25.50;11.57;;;;;;;13.21;100.00;100967.75;5014226;28;20084;-67
2023/07/04 01:35:12;;;;;;;23.88;12.15;;;;;;;13.27;100.00;100974.81;5012706;28;20037;-68
2023/07/04 01:37:38;;;;;;;22.33;12.20;;;;;;;13.33;100.00;100962.41;5014018;28;20053;-67
2023/07/04 01:40:07;;;;;;;25.77;12.93;;;;;;;13.41;100.00;100970.00;5013997;28;20044;-68
2023/07/04 01:42:32;;;;;;;25.05;12.40;;;;;;;13.45;100.00;100972.13;5014154;28;20065;-68
2023/07/04 01:45:04;;;;;;;26.27;12.52;;;;;;;13.48;100.00;100971.47;5013769;28;20406;-68
2023/07/04 01:47:31;;;;;;;24.42;12.77;;;;;;;13.50;100.00;100969.19;5013900;28;20592;-67
2023/07/04 01:49:56;;;;;;;25.55;12.35;;;;;;;13.53;100.00;100966.56;5013799;28;20391;-67
2023/07/04 01:52:22;;;;;;;26.55;12.93;;;;;;;13.54;100.00;100959.06;5013767;28;20032;-67
2023/07/04 01:54:47;;;;;;;26.45;13.05;;;;;;;13.56;100.00;100963.16;5013943;28;20472;-68
2023/07/04 01:57:13;;;;;;;27.60;13.00;;;;;;;13.60;100.00;100966.09;5013724;28;20560;-68
2023/07/04 01:59:38;;;;;;;27.08;12.82;;;;;;;13.64;100.00;100969.06;5013922;28;20155;-68
2023/07/04 02:02:04;;;;;;;24.52;12.30;;;;;;;13.66;100.00;100956.47;5013564;28;20022;-68
2023/07/04 02:04:29;;;;;;;27.02;13.10;;;;;;;13.73;100.00;100964.31;5013564;28;20044;-68
2023/07/04 02:06:55;;;;;;;27.58;12.75;;;;;;;13.78;100.00;100964.19;5013597;28;20017;-68
2023/07/04 02:09:20;;;;;;;24.73;12.35;;;;;;;13.85;100.00;100955.34;5013459;28;20032;-68
2023/07/04 02:11:46;;;;;;;28.60;12.57;;;;;;;13.87;100.00;100956.69;5013652;28;20034;-68
2023/07/04 02:14:12;;;;;;;22.02;11.27;;;;;;;13.95;99.11;100954.22;5013896;28;20091;-68
2023/07/04 02:16:38;;;;;;;24.15;11.85;;;;;;;13.98;98.00;100950.78;5013566;28;20113;-68
2023/07/04 02:19:03;;;;;;;23.75;11.40;;;;;;;13.99;93.89;100956.03;5013371;28;20367;-68
2023/07/04 02:21:28;;;;;;;23.17;10.82;;;;;;;14.04;93.18;100966.97;5013480;28;20226;-68
2023/07/04 02:23:54;;;;;;;23.35;11.65;;;;;;;14.02;93.09;100963.72;5013304;28;20121;-68
2023/07/04 02:26:19;;;;;;;21.10;11.02;;;;;;;14.04;93.38;100966.16;5013162;28;20057;-67
2023/07/04 02:28:45;;;;;;;24.42;11.32;;;;;;;14.06;94.24;100974.16;5013077;28;20386;-67
2023/07/04 02:31:10;;;;;;;24.50;11.38;;;;;;;14.03;96.20;100989.56;5011432;28;20041;-68
2023/07/04 02:33:36;;;;;;;25.17;12.02;;;;;;;13.98;97.19;100981.38;5013201;28;20053;-68
2023/07/04 02:36:01;;;;;;;23.15;12.80;;;;;;;13.92;98.46;100986.28;5013277;28;20034;-68
2023/07/04 02:38:27;;;;;;;22.40;11.77;;;;;;;13.84;99.19;100974.00;5013020;28;20404;-67
2023/07/04 02:40:53;;;;;;;21.67;11.98;;;;;;;13.77;100.00;100975.63;5012952;28;20440;-68
2023/07/04 02:43:18;;;;;;;22.45;13.25;;;;;;;13.69;100.00;100966.94;5012922;28;20632;-68
2023/07/04 02:45:44;;;;;;;26.65;15.13;;;;;;;13.69;100.00;100977.25;5012716;28;20034;-68
2023/07/04 02:48:10;;;;;;;25.90;15.45;;;;;;;13.63;100.00;100970.19;5012859;28;20036;-68
2023/07/04 02:50:36;;;;;;;25.98;15.25;;;;;;;13.60;100.00;100971.66;5012716;28;20022;-68
2023/07/04 02:53:01;;;;;;;24.27;15.27;;;;;;;13.59;100.00;100969.22;5012783;28;20034;-68
2023/07/04 02:55:27;;;;;;;25.02;14.95;;;;;;;13.56;100.00;100960.38;5012759;28;20034;-69
2023/07/04 02:57:54;;;;;;;24.23;14.52;;;;;;;13.56;100.00;100956.78;5011156;28;20061;-68
2023/07/04 03:00:19;;;;;;;29.25;14.60;;;;;;;13.55;100.00;100957.94;5012360;28;20021;-68
2023/07/04 03:02:44;;;;;;;27.40;15.10;;;;;;;13.56;100.00;100954.00;5012701;28;20520;-68
2023/07/04 03:05:10;;;;;;;24.48;14.48;;;;;;;13.56;100.00;100962.31;5012528;28;20052;-68
2023/07/04 03:07:35;;;;;;;27.92;15.45;;;;;;;13.55;100.00;100971.84;5012414;28;20760;-68
2023/07/04 03:10:01;;;;;;;22.95;13.80;;;;;;;13.54;100.00;100973.78;5012488;28;20120;-68
2023/07/04 03:12:26;;;;;;;27.60;14.00;;;;;;;13.48;100.00;100975.06;5012356;28;20064;-68
2023/07/04 03:14:51;;;;;;;25.67;14.10;;;;;;;13.48;100.00;100972.31;5012454;28;20128;-69
2023/07/04 03:17:17;;;;;;;26.27;13.38;;;;;;;13.46;100.00;100971.00;5012232;28;20405;-68
2023/07/04 03:19:42;;;;;;;22.67;13.00;;;;;;;13.47;100.00;100973.44;5012230;28;20033;-68
2023/07/04 03:22:08;;;;;;;23.75;13.70;;;;;;;13.47;100.00;100979.00;5012462;28;20022;-68
2023/07/04 03:24:33;;;;;;;27.25;13.68;;;;;;;13.49;100.00;100975.88;5012281;28;20089;-69
2023/07/04 03:26:59;;;;;;;25.67;13.70;;;;;;;13.51;100.00;100979.97;5012387;28;20476;-69
2023/07/04 03:29:25;;;;;;;24.58;13.57;;;;;;;13.51;100.00;100974.41;5012044;28;20084;-70
2023/07/04 03:31:50;;;;;;;25.88;14.00;;;;;;;13.50;100.00;100971.97;5012410;28;20033;-69
2023/07/04 03:34:15;;;;;;;24.15;14.18;;;;;;;13.51;100.00;100979.16;5012326;28;20466;-68
2023/07/04 03:36:40;;;;;;;27.77;13.90;;;;;;;13.49;100.00;100976.72;5012039;28;20069;-68
2023/07/04 03:39:06;;;;;;;25.98;13.95;;;;;;;13.47;100.00;100981.78;5012219;28;20026;-68
2023/07/04 03:41:32;;;;;;;24.92;13.95;;;;;;;13.41;100.00;100983.88;5012235;28;20075;-68
2023/07/04 03:43:57;;;;;;;22.77;13.25;;;;;;;13.39;100.00;100983.38;5012260;28;20041;-69
2023/07/04 03:46:23;;;;;;;24.85;13.80;;;;;;;13.40;100.00;100992.56;5012028;28;20149;-68
2023/07/04 03:48:49;;;;;;;24.15;12.75;;;;;;;13.33;100.00;100981.88;5010564;28;20038;-67
2023/07/04 03:51:14;;;;;;;24.42;12.85;;;;;;;13.34;100.00;100989.06;5012113;28;20030;-68
2023/07/04 03:53:39;;;;;;;23.02;12.82;;;;;;;13.34;100.00;100979.91;5012115;28;20037;-68
2023/07/04 03:56:06;;;;;;;26.50;13.65;;;;;;;13.32;100.00;100985.78;5011946;28;20390;-68
2023/07/04 03:58:31;;;;;;;23.85;12.93;;;;;;;13.31;100.00;101000.00;5011951;28;20045;-68
2023/07/04 04:00:56;;;;;;;25.85;12.98;;;;;;;13.28;100.00;100987.56;5011865;28;20026;-67
2023/07/04 04:03:24;;;;;;;24.02;13.60;;;;;;;13.30;100.00;100993.63;5011982;28;20029;-68
2023/07/04 04:05:50;;;;;;;25.08;12.63;;;;;;;13.34;100.00;100996.56;5011699;28;20045;-68
2023/07/04 04:08:15;;;;;;;25.63;12.55;;;;;;;13.31;100.00;100997.22;5010813;28;20034;-68
2023/07/04 04:10:42;;;;;;;23.92;12.00;;;;;;;13.31;100.00;100994.44;5010608;28;20045;-69
2023/07/04 04:13:09;;;;;;;23.38;12.45;;;;;;;13.26;100.00;100987.88;5015609;28;20084;-69
2023/07/04 04:15:34;;;;;;;26.38;12.73;;;;;;;13.26;100.00;100987.88;5015809;28;20460;-69
2023/07/04 04:18:00;;;;;;;24.92;12.73;;;;;;;13.23;100.00;100999.63;5015530;28;20030;-68
2023/07/04 04:20:25;;;;;;;25.15;12.68;;;;;;;13.20;100.00;100996.69;5015588;28;20092;-68
2023/07/04 04:22:51;;;;;;;23.63;12.20;;;;;;;13.17;100.00;100994.56;5015643;28;20040;-69
2023/07/04 04:25:17;;;;;;;24.67;12.98;;;;;;;13.16;100.00;100998.47;5015329;28;20076;-68
2023/07/04 04:27:43;;;;;;;23.60;12.70;;;;;;;13.14;100.00;101001.56;5015294;28;20026;-69
2023/07/04 04:30:10;;;;;;;28.23;13.70;;;;;;;13.15;100.00;101002.38;5015472;28;20050;-68
2023/07/04 04:32:40;;;;;;;27.02;13.45;;;;;;;13.18;100.00;100998.94;5015318;28;20022;-68
2023/07/04 04:35:08;;;;;;;30.02;14.20;;;;;;;13.21;100.00;101003.88;5015495;28;20026;-68
2023/07/04 04:37:34;;;;;;;27.17;13.60;;;;;;;13.29;100.00;101005.06;5015223;28;20022;-68
2023/07/04 04:40:00;;;;;;;32.50;13.80;;;;;;;13.41;100.00;101017.22;5015148;28;20072;-68
2023/07/04 04:42:26;;;;;;;28.65;13.80;;;;;;;13.50;100.00;101017.28;5015379;28;20041;-68
2023/07/04 04:44:53;;;;;;;26.35;13.80;;;;;;;13.60;100.00;101013.38;5014658;28;20029;-68
2023/07/04 04:47:32;;;;;;;25.75;13.52;;;;;;;13.68;100.00;101017.31;5014934;28;20026;-68
2023/07/04 04:50:00;;;;;;;28.63;14.20;;;;;;;13.72;100.00;101015.50;5015047;28;20108;-68
2023/07/04 04:52:29;;;;;;;29.83;13.45;;;;;;;13.77;100.00;101017.31;5014911;28;20029;-67
2023/07/04 04:54:54;;;;;;;27.55;13.95;;;;;;;13.81;100.00;101013.56;5013640;28;20045;-69
2023/07/04 04:57:19;;;;;;;25.85;12.88;;;;;;;13.86;100.00;101018.16;5014858;28;20052;-69
2023/07/04 04:59:47;;;;;;;27.58;13.57;;;;;;;13.93;100.00;101026.03;5014741;28;20034;-68
2023/07/04 05:02:13;;;;;;;28.33;13.75;;;;;;;14.00;100.00;101024.41;5014734;28;20041;-68
2023/07/04 05:04:38;;;;;;;28.70;14.10;;;;;;;14.08;100.00;101021.97;5013347;28;20030;-68
2023/07/04 05:07:04;;;;;;;30.55;14.10;;;;;;;14.14;100.00;101020.66;5014616;28;20030;-68
2023/07/04 05:09:32;;;;;;;28.63;13.73;;;;;;;14.15;100.00;101017.56;5014951;28;20502;-69
2023/07/04 05:11:57;;;;;;;26.55;13.32;;;;;;;14.20;100.00;101024.94;5014570;28;20042;-70
2023/07/04 05:14:23;;;;;;;25.92;13.20;;;;;;;14.22;100.00;101022.59;5014480;28;20026;-72
2023/07/04 05:16:48;;;;;;;24.67;13.98;;;;;;;14.22;100.00;101021.81;5014424;28;20156;-72
2023/07/04 05:19:13;;;;;;;24.83;13.90;;;;;;;14.24;100.00;101025.88;5014524;28;20060;-70
2023/07/04 05:21:39;;;;;;;26.08;13.50;;;;;;;14.25;100.00;101024.75;5013938;28;20029;-70
2023/07/04 05:24:04;;;;;;;28.25;13.93;;;;;;;14.29;100.00;101030.47;5014155;28;20048;-69
2023/07/04 05:26:30;;;;;;;26.85;13.93;;;;;;;14.24;100.00;101031.47;5014173;28;20124;-70
2023/07/04 05:28:58;;;;;;;26.80;13.77;;;;;;;14.28;100.00;101023.28;5013577;28;20029;-69
2023/07/04 05:31:26;;;;;;;28.98;14.80;;;;;;;14.26;100.00;101028.38;4974897;28;20066;-69
2023/07/04 05:33:53;;;;;;;25.80;13.65;;;;;;;14.28;100.00;101034.41;4975414;28;20538;-70
2023/07/04 05:36:21;;;;;;;26.10;13.55;;;;;;;14.35;100.00;101040.31;4989827;28;20041;-69
2023/07/04 05:38:49;;;;;;;26.77;13.50;;;;;;;14.39;100.00;101038.50;4977721;28;20030;-70
2023/07/04 05:41:17;;;;;;;25.52;13.32;;;;;;;14.45;100.00;101033.59;5013762;28;20124;-69
2023/07/04 05:43:43;;;;;;;25.13;13.80;;;;;;;14.52;100.00;101036.69;5013759;28;20044;-68
2023/07/04 05:46:10;;;;;;;27.45;14.10;;;;;;;14.60;100.00;101037.84;5013354;28;20022;-69
2023/07/04 05:48:36;;;;;;;23.05;14.25;;;;;;;14.67;100.00;101035.41;5013563;28;20052;-68
2023/07/04 05:51:07;;;;;;;26.45;13.75;;;;;;;14.71;100.00;101030.81;5013687;28;20081;-68
2023/07/04 05:53:34;;;;;;;26.35;13.85;;;;;;;14.82;100.00;101046.03;5013625;28;20034;-68
2023/07/04 05:56:11;;;;;;;27.20;13.73;;;;;;;14.87;100.00;101039.47;5013575;28;20088;-68
2023/07/04 05:58:38;;;;;;;26.25;14.45;;;;;;;14.92;100.00;101035.72;5012066;28;20048;-68
2023/07/04 06:01:09;;;;;;;26.05;12.75;;;;;;;14.97;100.00;101046.66;5013297;28;20026;-68
2023/07/04 06:03:35;;;;;;;27.25;13.27;;;;;;;15.04;100.00;101044.19;5013177;28;20029;-68
2023/07/04 06:06:03;;;;;;;29.60;13.27;;;;;;;15.08;100.00;101042.38;5011511;28;20512;-68
2023/07/04 06:08:28;;;;;;;27.05;13.15;;;;;;;15.18;100.00;101046.75;5013033;28;20036;-68
2023/07/04 06:10:58;;;;;;;25.63;13.05;;;;;;;15.19;100.00;101044.81;5013081;28;20101;-69
2023/07/04 06:13:23;;;;;;;27.67;11.50;;;;;;;15.23;99.17;101043.81;5013277;28;20084;-68
2023/07/04 06:15:49;;;;;;;30.48;12.40;;;;;;;15.29;98.33;101052.81;5012930;28;20470;-68
2023/07/04 06:18:14;;;;;;;26.77;11.45;;;;;;;15.46;97.98;101057.47;5011754;28;20030;-67
2023/07/04 06:20:39;;;;;;;29.17;11.88;;;;;;;15.57;96.50;101060.72;5011664;28;20531;-67
2023/07/04 06:23:04;;;;;;;25.65;10.60;;;;;;;15.66;95.36;101060.66;5012944;28;20461;-67
2023/07/04 06:25:30;;;;;;;26.38;11.98;;;;;;;15.73;95.50;101059.00;5012722;28;20519;-67
2023/07/04 06:27:55;;;;;;;25.02;12.02;;;;;;;15.84;94.92;101073.41;5012717;28;20026;-67
2023/07/04 06:30:21;;;;;;;27.17;11.80;;;;;;;15.90;92.03;101072.06;5012914;28;20042;-67
2023/07/04 06:32:47;;;;;;;25.00;11.02;;;;;;;15.96;93.87;101075.50;5012834;28;20030;-67
2023/07/04 06:35:13;;;;;;;23.73;11.45;;;;;;;16.05;93.29;101076.25;5012132;28;20160;-67
2023/07/04 06:37:39;;;;;;;25.83;11.23;;;;;;;16.08;92.18;101073.91;5012650;28;20040;-68
2023/07/04 06:40:06;;;;;;;28.08;11.57;;;;;;;16.08;91.65;101082.28;5011637;28;20119;-67
2023/07/04 06:42:32;;;;;;;24.35;11.57;;;;;;;16.10;91.19;101077.19;5011238;28;20033;-68
2023/07/04 06:44:57;;;;;;;22.58;11.50;;;;;;;16.20;91.34;101083.19;5012456;28;20032;-68
2023/07/04 06:47:22;;;;;;;24.95;11.93;;;;;;;16.27;90.46;101085.44;5012598;28;20335;-69
2023/07/04 06:49:48;;;;;;;25.85;11.93;;;;;;;16.38;89.79;101091.47;5011122;28;20368;-67
2023/07/04 06:52:13;;;;;;;25.40;11.85;;;;;;;16.51;88.71;101095.94;5012106;28;20029;-68
2023/07/04 06:54:39;;;;;;;24.02;11.20;;;;;;;16.62;88.63;101084.34;5012217;28;20109;-66
2023/07/04 06:57:04;;;;;;;23.73;10.57;;;;;;;16.63;87.38;101092.38;5005728;28;20768;-67
2023/07/04 06:59:30;;;;;;;22.35;11.40;;;;;;;16.67;88.12;101100.94;4991626;28;20034;-66
2023/07/04 07:01:55;;;;;;;22.35;12.13;;;;;;;16.74;82.64;101103.97;4988255;28;20125;-66
2023/07/04 07:04:20;;;;;;;24.58;11.93;;;;;;;16.72;83.33;101100.69;4981193;28;20033;-67
2023/07/04 07:06:46;;;;;;;22.23;11.98;;;;;;;16.81;85.68;101114.59;4985756;28;20032;-66
2023/07/04 07:09:11;;;;;;;24.80;11.98;;;;;;;16.86;84.27;101106.00;4981165;28;20165;-66
2023/07/04 07:11:36;;;;;;;22.55;11.48;;;;;;;16.87;83.24;101112.41;4989980;28;20113;-66
2023/07/04 07:14:02;;;;;;;25.13;12.10;;;;;;;16.85;81.60;101112.75;4990215;28;20032;-67
2023/07/04 07:16:27;;;;;;;25.15;11.73;;;;;;;16.93;82.73;101111.88;4990258;28;20544;-66
2023/07/04 07:18:54;;;;;;;22.85;10.60;;;;;;;17.04;82.10;101108.66;4991719;28;20109;-67
2023/07/04 07:21:23;;;;;;;25.90;12.00;;;;;;;17.13;81.58;101101.00;4991429;28;20030;-66
2023/07/04 07:23:49;;;;;;;23.55;11.60;;;;;;;17.09;79.10;101086.91;4991511;28;20026;-66
2023/07/04 07:26:21;;;;;;;23.27;11.77;;;;;;;17.13;79.56;101095.41;4991436;28;20022;-68
2023/07/04 07:28:46;;;;;;;22.65;11.75;;;;;;;17.21;78.33;101116.84;4991430;28;20034;-67
2023/07/04 07:31:20;;;;;;;24.15;11.75;;;;;;;17.28;78.20;101111.53;4989950;28;20141;-67
2023/07/04 07:33:48;;;;;;;24.25;11.63;;;;;;;17.35;77.77;101112.94;4989868;28;20072;-66
2023/07/04 07:36:23;;;;;;;23.10;11.15;;;;;;;17.39;77.34;101117.50;4991412;28;20057;-67
2023/07/04 07:38:49;;;;;;;22.60;11.50;;;;;;;17.39;76.14;101119.47;4991318;28;20038;-67
2023/07/04 07:41:15;;;;;;;25.40;12.18;;;;;;;17.45;76.03;101118.09;4991016;28;20045;-68
2023/07/04 07:43:42;;;;;;;22.77;10.95;;;;;;;17.51;75.87;101118.69;4991272;28;20061;-67
2023/07/04 07:46:13;;;;;;;23.75;11.73;;;;;;;17.55;75.05;101116.81;4993281;28;20109;-67
2023/07/04 07:48:39;;;;;;;23.13;11.00;;;;;;;17.66;72.92;101118.00;4994943;28;20035;-67
2023/07/04 07:51:07;;;;;;;23.38;11.35;;;;;;;17.69;70.45;101127.66;4994947;28;20030;-67
2023/07/04 07:53:35;;;;;;;22.13;11.43;;;;;;;17.70;71.07;101123.72;4994963;28;20026;-67
2023/07/04 07:56:00;;;;;;;26.58;11.43;;;;;;;17.66;70.92;101132.00;4994772;28;20826;-66
2023/07/04 07:58:25;;;;;;;20.70;10.00;;;;;;;17.59;70.17;101132.56;4994137;28;20034;-67
2023/07/04 08:00:51;;;;;;;22.13;11.30;;;;;;;17.57;68.85;101125.69;4994826;28;20057;-66
2023/07/04 08:03:16;;;;;;;21.55;10.75;;;;;;;17.55;70.48;101122.41;4994620;28;20030;-67
2023/07/04 08:05:42;;;;;;;21.80;10.60;;;;;;;17.65;70.08;101133.16;4994973;28;20077;-67
2023/07/04 08:08:09;;;;;;;20.90;10.70;;;;;;;17.66;67.51;101132.00;4994205;28;20034;-67
2023/07/04 08:10:38;;;;;;;19.88;10.00;;;;;;;17.84;68.74;101128.97;4995015;28;20053;-68
2023/07/04 08:13:04;;;;;;;23.33;10.82;;;;;;;18.07;69.00;101123.75;4994923;28;20081;-67
2023/07/04 08:15:30;;;;;;;22.30;11.32;;;;;;;18.23;68.64;101124.66;4994664;28;20054;-68
2023/07/04 08:17:55;;;;;;;23.67;11.20;;;;;;;18.38;67.28;101128.72;4994859;28;20042;-68
2023/07/04 08:20:21;;;;;;;20.73;10.43;;;;;;;18.34;64.75;101140.97;4994012;28;20109;-69
2023/07/04 08:22:47;;;;;;;19.48;10.13;;;;;;;18.23;65.37;101133.06;4994146;28;20113;-68
2023/07/04 08:25:13;;;;;;;21.52;10.85;;;;;;;18.21;66.14;101137.38;4994097;28;20121;-68
2023/07/04 08:27:38;;;;;;;19.63;10.48;;;;;;;18.17;65.96;101136.47;4993842;28;20032;-68
2023/07/04 08:30:04;;;;;;;20.75;9.65;;;;;;;18.12;66.02;101136.69;4994329;28;20047;-68
2023/07/04 08:32:29;;;;;;;21.95;10.43;;;;;;;18.13;66.23;101149.53;4992983;28;20041;-67
2023/07/04 08:34:55;;;;;;;19.33;9.88;;;;;;;18.15;62.57;101148.00;4994303;28;20034;-68
2023/07/04 08:37:21;;;;;;;19.80;10.07;;;;;;;18.11;63.45;101138.69;4994358;28;20022;-70
2023/07/04 08:39:48;;;;;;;22.85;10.40;;;;;;;18.20;62.73;101141.34;4994391;28;20034;-68
2023/07/04 08:42:17;;;;;;;21.80;9.75;;;;;;;18.30;62.85;101126.06;4994359;28;20478;-67
2023/07/04 08:44:45;;;;;;;20.25;9.45;;;;;;;18.49;60.34;101128.25;4994142;28;20035;-68
2023/07/04 08:47:25;;;;;;;19.77;10.00;;;;;;;18.69;61.27;101121.66;4994111;28;20132;-68
2023/07/04 08:49:54;;;;;;;19.60;9.73;;;;;;;18.89;60.81;101126.63;4994045;28;20027;-68
2023/07/04 08:52:39;;;;;;;20.55;9.40;;;;;;;19.09;60.71;101117.19;4994166;28;20034;-68
2023/07/04 08:55:10;;;;;;;18.60;10.00;;;;;;;19.28;58.80;101138.97;4994187;28;20083;-68
2023/07/04 08:57:49;;;;;;;20.73;9.55;;;;;;;19.40;58.71;101145.69;4993442;28;20087;-67
2023/07/04 09:00:24;;;;;;;21.23;9.38;;;;;;;19.43;57.95;101137.34;4994148;28;20073;-67
2023/07/04 09:03:26;;;;;;;20.92;9.35;;;;;;;19.56;56.73;101140.88;4993921;28;20066;-68
2023/07/04 09:05:56;;;;;;;19.95;9.55;;;;;;;19.60;57.32;101133.38;4993690;28;20117;-68
2023/07/04 09:08:51;;;;;;;20.92;9.02;;;;;;;19.59;56.46;101145.78;4992683;28;20125;-68
2023/07/04 09:11:17;;;;;;;20.00;8.82;;;;;;;19.50;53.52;101145.16;4993576;28;20113;-67
2023/07/04 09:13:45;;;;;;;18.58;9.30;;;;;;;19.46;53.87;101153.44;4993599;28;20104;-67
2023/07/04 09:16:35;;;;;;;19.00;8.73;;;;;;;19.42;55.28;101146.09;4993590;28;20031;-68
2023/07/04 09:19:09;;;;;;;18.38;8.95;;;;;;;19.59;54.31;101137.38;4993585;28;20045;-68
2023/07/04 09:21:39;;;;;;;18.58;8.70;;;;;;;19.60;53.67;101164.22;4993441;28;20237;-68
2023/07/04 09:24:05;;;;;;;17.63;8.40;;;;;;;19.71;53.12;101167.34;4993658;28;20085;-68
2023/07/04 09:26:41;;;;;;;17.83;8.43;;;;;;;19.72;52.33;101152.13;4991650;28;20026;-68
2023/07/04 09:29:06;;;;;;;17.20;8.90;;;;;;;19.82;52.09;101167.59;4993498;28;20034;-67
2023/07/04 09:31:36;;;;;;;20.10;8.70;;;;;;;19.93;52.13;101162.31;4993161;28;20625;-68
2023/07/04 09:34:08;;;;;;;20.60;8.63;;;;;;;20.00;52.55;101164.47;4993500;28;20031;-68
2023/07/04 09:36:37;;;;;;;18.30;8.70;;;;;;;20.02;52.35;101162.09;4993234;28;20100;-67
2023/07/04 09:39:05;;;;;;;23.65;9.32;;;;;;;20.29;50.70;101171.59;4993114;28;20034;-68
2023/07/04 09:41:33;;;;;;;18.48;8.43;;;;;;;20.42;50.07;101158.25;4992891;28;20031;-67
2023/07/04 09:44:26;;;;;;;16.95;8.00;;;;;;;20.66;50.20;101174.03;4993471;28;20026;-68
2023/07/04 09:46:54;;;;;;;18.52;8.60;;;;;;;20.37;48.53;101159.34;4993106;28;20088;-68
2023/07/04 09:49:24;;;;;;;17.85;8.68;;;;;;;20.54;48.89;101191.03;4992812;28;20077;-68
2023/07/04 09:52:21;;;;;;;18.88;8.20;;;;;;;20.58;48.60;101186.31;4992874;28;20069;-69
2023/07/04 09:55:09;;;;;;;20.02;8.85;;;;;;;20.32;49.19;101170.84;4984405;28;20038;-68
2023/07/04 09:57:35;;;;;;;18.52;8.55;;;;;;;20.26;49.38;101170.31;4991039;28;20065;-68
2023/07/04 10:00:24;;;;;;;19.40;8.95;;;;;;;20.33;49.13;101169.66;4992580;28;20066;-68
2023/07/04 10:02:56;;;;;;;18.98;8.88;;;;;;;20.28;49.66;101181.19;4983654;28;20049;-68
2023/07/04 10:05:31;;;;;;;18.52;8.18;;;;;;;20.15;50.08;101171.25;4990953;28;20129;-68
2023/07/04 10:08:07;;;;;;;17.42;8.40;;;;;;;20.05;49.81;101179.03;4990360;28;20648;-69
2023/07/04 10:10:37;;;;;;;19.52;8.98;;;;;;;20.06;50.06;101179.88;4992420;28;20105;-68
2023/07/04 10:13:06;;;;;;;19.20;8.73;;;;;;;20.13;50.43;101173.59;4992607;28;20036;-68
2023/07/04 10:15:40;;;;;;;17.98;9.20;;;;;;;20.31;50.68;101169.22;4992747;28;20040;-69
2023/07/04 10:18:06;;;;;;;17.38;9.07;;;;;;;20.36;50.06;101170.94;4992258;28;20038;-68
2023/07/04 10:20:36;;;;;;;18.25;9.60;;;;;;;20.50;51.12;101159.22;4992199;28;20560;-68
2023/07/04 10:23:02;;;;;;;20.05;8.55;;;;;;;20.64;49.44;101167.97;4990832;28;20042;-68
2023/07/04 10:25:30;;;;;;;20.02;9.23;;;;;;;20.66;49.26;101164.78;4992210;28;20145;-68
2023/07/04 10:28:06;;;;;;;19.27;8.77;;;;;;;20.67;50.08;101172.03;4992344;28;20030;-68
2023/07/04 10:30:36;;;;;;;18.45;9.50;;;;;;;20.67;48.58;101170.06;4991803;28;20189;-68
2023/07/04 10:33:08;;;;;;;19.17;9.13;;;;;;;20.60;47.71;101167.06;4990633;28;20031;-68
2023/07/04 10:35:39;;;;;;;19.48;9.50;;;;;;;20.75;48.36;101164.59;5007344;28;20030;-68
2023/07/04 10:38:16;;;;;;;17.42;8.80;;;;;;;21.13;47.68;101182.69;4992346;28;20030;-67
2023/07/04 10:40:42;;;;;;;18.40;8.95;;;;;;;21.13;46.54;101177.03;4992144;28;20034;-67
2023/07/04 10:43:14;;;;;;;19.42;9.00;;;;;;;21.26;47.36;101172.06;4991923;28;20026;-67
2023/07/04 10:45:41;;;;;;;17.95;9.00;;;;;;;21.42;46.42;101169.16;4991438;28;20026;-66
2023/07/04 10:48:14;;;;;;;18.33;8.70;;;;;;;21.60;47.23;101175.97;4990237;28;20144;-66
2023/07/04 10:50:49;;;;;;;16.55;8.95;;;;;;;21.70;46.04;101171.72;4991539;28;20478;-66
2023/07/04 10:53:17;;;;;;;19.15;9.73;;;;;;;21.77;45.65;101179.47;4991606;28;20510;-66
2023/07/04 10:55:49;;;;;;;16.75;8.32;;;;;;;21.87;45.34;101164.75;4991336;28;20130;-66
2023/07/04 10:58:18;;;;;;;16.48;8.32;;;;;;;21.85;44.97;101171.97;4991513;28;20036;-67
2023/07/04 11:00:49;;;;;;;18.38;9.18;;;;;;;21.75;44.37;101190.28;4991407;28;20046;-66
2023/07/04 11:03:17;;;;;;;15.60;8.40;;;;;;;21.56;44.91;101183.50;4991774;28;20034;-66
2023/07/04 11:05:46;;;;;;;18.65;8.82;;;;;;;21.45;44.91;101183.31;4991557;28;20026;-66
2023/07/04 11:08:18;;;;;;;19.13;9.15;;;;;;;21.44;46.34;101184.47;4984688;28;20109;-70
2023/07/04 11:10:48;;;;;;;16.90;8.50;;;;;;;21.47;45.81;101178.13;4971840;28;20115;-67